Terminal Aerodrome Forecast
Issued by NWS

Home | Current Version | Previous Version | Text Only | Print | Product List | Glossary On
Versions: 1 2 3 4 5 6 7 8 9 10 11 12 13 14 15 16 17 18 19
532
FTUS44 KCRP 272331
TAFALI
TAF
KALI 272331Z 2800/2824 15013KT P6SM FEW050 SCT250
     FM280200 14008KT P6SM SCT025 BKN250
     FM280800 14005KT 5SM BR BKN015
      TEMPO 2810/2814 1SM BR OVC008
     FM281500 16012G18KT P6SM BKN035
      TEMPO 2815/2817 BKN025
     FM282000 14016G22KT P6SM FEW050 SCT250=

USA.gov is the U.S. government's official web portal to all federal, state and local government web resources and services.